sensor_id;sensor_type;location;lat;lon;timestamp;temperature;humidity
51837;DHT22;38941;53.254;6.600;2023-04-03T00:00:00;3.00;96.50
51837;DHT22;38941;53.254;6.600;2023-04-03T00:02:01;3.60;96.70
51837;DHT22;38941;53.254;6.600;2023-04-03T00:04:02;3.90;96.80
51837;DHT22;38941;53.254;6.600;2023-04-03T00:06:04;3.40;96.60
51837;DHT22;38941;53.254;6.600;2023-04-03T00:08:08;3.00;96.70
51837;DHT22;38941;53.254;6.600;2023-04-03T00:10:11;4.20;96.90
51837;DHT22;38941;53.254;6.600;2023-04-03T00:12:12;3.00;96.70
51837;DHT22;38941;53.254;6.600;2023-04-03T00:14:13;3.70;96.70
51837;DHT22;38941;53.254;6.600;2023-04-03T00:16:15;3.90;96.90
51837;DHT22;38941;53.254;6.600;2023-04-03T00:18:17;2.90;96.50
51837;DHT22;38941;53.254;6.600;2023-04-03T00:20:18;4.00;97.00
51837;DHT22;38941;53.254;6.600;2023-04-03T00:22:19;2.90;96.70
51837;DHT22;38941;53.254;6.600;2023-04-03T00:24:21;3.30;96.80
51837;DHT22;38941;53.254;6.600;2023-04-03T00:26:23;3.80;96.90
51837;DHT22;38941;53.254;6.600;2023-04-03T00:28:25;2.90;96.70
51837;DHT22;38941;53.254;6.600;2023-04-03T00:30:28;2.80;96.80
51837;DHT22;38941;53.254;6.600;2023-04-03T00:32:29;2.80;96.60
51837;DHT22;38941;53.254;6.600;2023-04-03T00:34:29;3.90;96.90
51837;DHT22;38941;53.254;6.600;2023-04-03T00:36:30;3.60;97.00
51837;DHT22;38941;53.254;6.600;2023-04-03T00:38:31;2.80;96.80
51837;DHT22;38941;53.254;6.600;2023-04-03T00:40:37;2.70;96.80
51837;DHT22;38941;53.254;6.600;2023-04-03T00:42:39;3.40;96.80
51837;DHT22;38941;53.254;6.600;2023-04-03T00:46:41;3.30;96.80
51837;DHT22;38941;53.254;6.600;2023-04-03T00:48:47;3.00;96.80
51837;DHT22;38941;53.254;6.600;2023-04-03T00:50:49;2.60;96.60
51837;DHT22;38941;53.254;6.600;2023-04-03T00:52:51;2.60;96.70
51837;DHT22;38941;53.254;6.600;2023-04-03T00:54:54;3.30;97.00
51837;DHT22;38941;53.254;6.600;2023-04-03T00:56:57;3.60;97.10
51837;DHT22;38941;53.254;6.600;2023-04-03T00:59:05;2.20;96.90
51837;DHT22;38941;53.254;6.600;2023-04-03T01:01:08;3.60;97.10
51837;DHT22;38941;53.254;6.600;2023-04-03T01:03:12;2.90;97.00
51837;DHT22;38941;53.254;6.600;2023-04-03T01:05:15;3.10;97.40
51837;DHT22;38941;53.254;6.600;2023-04-03T01:07:20;2.90;97.20
51837;DHT22;38941;53.254;6.600;2023-04-03T01:09:22;3.30;97.30
51837;DHT22;38941;53.254;6.600;2023-04-03T01:11:23;2.40;97.20
51837;DHT22;38941;53.254;6.600;2023-04-03T01:13:28;2.40;97.10
51837;DHT22;38941;53.254;6.600;2023-04-03T01:15:29;3.20;97.30
51837;DHT22;38941;53.254;6.600;2023-04-03T01:17:38;2.30;97.40
51837;DHT22;38941;53.254;6.600;2023-04-03T01:19:44;2.90;97.50
51837;DHT22;38941;53.254;6.600;2023-04-03T01:21:56;2.20;97.40
51837;DHT22;38941;53.254;6.600;2023-04-03T01:24:12;2.80;97.60
51837;DHT22;38941;53.254;6.600;2023-04-03T01:26:19;2.20;97.50
51837;DHT22;38941;53.254;6.600;2023-04-03T01:28:26;2.20;97.70
51837;DHT22;38941;53.254;6.600;2023-04-03T01:30:34;2.20;97.60
51837;DHT22;38941;53.254;6.600;2023-04-03T01:32:37;2.60;97.80
51837;DHT22;38941;53.254;6.600;2023-04-03T01:34:39;2.20;97.90
51837;DHT22;38941;53.254;6.600;2023-04-03T01:36:40;2.10;98.00
51837;DHT22;38941;53.254;6.600;2023-04-03T01:38:41;2.80;98.30
51837;DHT22;38941;53.254;6.600;2023-04-03T01:40:42;2.10;98.30
51837;DHT22;38941;53.254;6.600;2023-04-03T01:42:44;3.00;98.50
51837;DHT22;38941;53.254;6.600;2023-04-03T01:44:44;2.10;98.30
51837;DHT22;38941;53.254;6.600;2023-04-03T01:46:47;2.10;98.50
51837;DHT22;38941;53.254;6.600;2023-04-03T01:48:48;2.50;98.90
51837;DHT22;38941;53.254;6.600;2023-04-03T01:50:49;3.20;98.90
51837;DHT22;38941;53.254;6.600;2023-04-03T01:52:50;2.00;98.60
51837;DHT22;38941;53.254;6.600;2023-04-03T01:54:51;2.50;99.20
51837;DHT22;38941;53.254;6.600;2023-04-03T01:56:52;2.00;99.10
51837;DHT22;38941;53.254;6.600;2023-04-03T01:58:55;2.00;99.00
51837;DHT22;38941;53.254;6.600;2023-04-03T02:00:57;2.40;99.30
51837;DHT22;38941;53.254;6.600;2023-04-03T02:02:59;1.90;99.30
51837;DHT22;38941;53.254;6.600;2023-04-03T02:05:01;2.60;99.60
51837;DHT22;38941;53.254;6.600;2023-04-03T02:07:03;1.90;99.50
51837;DHT22;38941;53.254;6.600;2023-04-03T02:09:05;1.90;99.60
51837;DHT22;38941;53.254;6.600;2023-04-03T02:11:06;1.90;99.90
51837;DHT22;38941;53.254;6.600;2023-04-03T02:13:07;2.40;99.90
51837;DHT22;38941;53.254;6.600;2023-04-03T02:15:09;2.50;99.90
51837;DHT22;38941;53.254;6.600;2023-04-03T02:17:11;1.80;99.90
51837;DHT22;38941;53.254;6.600;2023-04-03T02:19:13;2.20;99.90
51837;DHT22;38941;53.254;6.600;2023-04-03T02:21:15;1.70;99.90
51837;DHT22;38941;53.254;6.600;2023-04-03T02:23:17;1.70;99.90
51837;DHT22;38941;53.254;6.600;2023-04-03T02:26:19;1.70;99.90
51837;DHT22;38941;53.254;6.600;2023-04-03T02:28:20;2.90;99.90
51837;DHT22;38941;53.254;6.600;2023-04-03T02:30:22;2.70;99.90
51837;DHT22;38941;53.254;6.600;2023-04-03T02:32:23;2.60;99.90
51837;DHT22;38941;53.254;6.600;2023-04-03T02:34:25;1.80;99.90
51837;DHT22;38941;53.254;6.600;2023-04-03T02:36:26;2.50;99.90
51837;DHT22;38941;53.254;6.600;2023-04-03T02:38:29;1.60;99.90
51837;DHT22;38941;53.254;6.600;2023-04-03T02:40:30;1.60;99.90
51837;DHT22;38941;53.254;6.600;2023-04-03T02:42:32;1.90;99.90
51837;DHT22;38941;53.254;6.600;2023-04-03T02:44:33;2.20;99.90
51837;DHT22;38941;53.254;6.600;2023-04-03T02:46:36;1.80;99.90
51837;DHT22;38941;53.254;6.600;2023-04-03T02:48:37;2.50;99.90
51837;DHT22;38941;53.254;6.600;2023-04-03T02:50:38;2.10;99.90
51837;DHT22;38941;53.254;6.600;2023-04-03T02:52:39;1.70;99.90
51837;DHT22;38941;53.254;6.600;2023-04-03T02:54:40;1.80;99.90
51837;DHT22;38941;53.254;6.600;2023-04-03T02:56:41;2.20;99.90
51837;DHT22;38941;53.254;6.600;2023-04-03T02:58:42;2.10;99.90
51837;DHT22;38941;53.254;6.600;2023-04-03T03:00:44;2.20;99.90
51837;DHT22;38941;53.254;6.600;2023-04-03T03:02:45;1.90;99.90
51837;DHT22;38941;53.254;6.600;2023-04-03T03:04:46;2.00;99.90
51837;DHT22;38941;53.254;6.600;2023-04-03T03:06:46;2.50;99.90
51837;DHT22;38941;53.254;6.600;2023-04-03T03:08:48;2.10;99.90
51837;DHT22;38941;53.254;6.600;2023-04-03T03:10:49;2.10;99.90
51837;DHT22;38941;53.254;6.600;2023-04-03T03:12:53;2.00;99.90
51837;DHT22;38941;53.254;6.600;2023-04-03T03:14:54;1.90;99.90
51837;DHT22;38941;53.254;6.600;2023-04-03T03:16:55;1.80;99.90
51837;DHT22;38941;53.254;6.600;2023-04-03T03:18:57;1.80;99.90
51837;DHT22;38941;53.254;6.600;2023-04-03T03:21:01;1.00;99.90
51837;DHT22;38941;53.254;6.600;2023-04-03T03:23:03;0.40;99.90
51837;DHT22;38941;53.254;6.600;2023-04-03T03:25:07;1.20;99.90
51837;DHT22;38941;53.254;6.600;2023-04-03T03:27:09;1.20;99.90
51837;DHT22;38941;53.254;6.600;2023-04-03T03:29:11;2.20;99.90
51837;DHT22;38941;53.254;6.600;2023-04-03T03:31:12;1.80;99.90
51837;DHT22;38941;53.254;6.600;2023-04-03T03:33:13;1.00;99.90
51837;DHT22;38941;53.254;6.600;2023-04-03T03:35:17;1.70;99.90
51837;DHT22;38941;53.254;6.600;2023-04-03T03:37:19;1.50;99.90
51837;DHT22;38941;53.254;6.600;2023-04-03T03:39:20;0.80;99.90
51837;DHT22;38941;53.254;6.600;2023-04-03T03:41:24;0.80;99.90
51837;DHT22;38941;53.254;6.600;2023-04-03T03:43:25;1.60;99.90
51837;DHT22;38941;53.254;6.600;2023-04-03T03:45:27;1.90;99.90
51837;DHT22;38941;53.254;6.600;2023-04-03T03:47:28;0.80;99.90
51837;DHT22;38941;53.254;6.600;2023-04-03T03:49:29;1.50;99.90
51837;DHT22;38941;53.254;6.600;2023-04-03T03:51:30;1.40;99.90
51837;DHT22;38941;53.254;6.600;2023-04-03T03:53:33;1.60;99.90
51837;DHT22;38941;53.254;6.600;2023-04-03T03:55:34;0.60;99.90
51837;DHT22;38941;53.254;6.600;2023-04-03T03:57:36;0.60;99.90
51837;DHT22;38941;53.254;6.600;2023-04-03T03:59:37;0.90;99.90
51837;DHT22;38941;53.254;6.600;2023-04-03T04:01:39;1.40;99.90
51837;DHT22;38941;53.254;6.600;2023-04-03T04:03:42;1.30;99.90
51837;DHT22;38941;53.254;6.600;2023-04-03T04:05:45;1.10;99.90
51837;DHT22;38941;53.254;6.600;2023-04-03T04:07:46;1.20;99.90
51837;DHT22;38941;53.254;6.600;2023-04-03T04:09:48;1.10;99.90
51837;DHT22;38941;53.254;6.600;2023-04-03T04:11:50;0.80;99.90
51837;DHT22;38941;53.254;6.600;2023-04-03T04:13:53;0.90;99.90
51837;DHT22;38941;53.254;6.600;2023-04-03T04:15:55;0.30;99.90
51837;DHT22;38941;53.254;6.600;2023-04-03T04:18:01;1.40;99.90
51837;DHT22;38941;53.254;6.600;2023-04-03T04:20:03;1.30;99.90
51837;DHT22;38941;53.254;6.600;2023-04-03T04:22:07;0.20;99.90
51837;DHT22;38941;53.254;6.600;2023-04-03T04:24:08;0.10;99.90
51837;DHT22;38941;53.254;6.600;2023-04-03T04:26:13;0.20;99.90
51837;DHT22;38941;53.254;6.600;2023-04-03T04:28:14;0.80;99.90
51837;DHT22;38941;53.254;6.600;2023-04-03T04:30:15;1.10;99.90
51837;DHT22;38941;53.254;6.600;2023-04-03T04:32:16;0.30;99.90
51837;DHT22;38941;53.254;6.600;2023-04-03T04:34:20;0.20;99.90
51837;DHT22;38941;53.254;6.600;2023-04-03T04:36:21;0.00;99.90
51837;DHT22;38941;53.254;6.600;2023-04-03T04:38:28;1.00;99.90
51837;DHT22;38941;53.254;6.600;2023-04-03T04:40:29;0.20;99.90
51837;DHT22;38941;53.254;6.600;2023-04-03T04:42:32;0.20;99.90
51837;DHT22;38941;53.254;6.600;2023-04-03T04:44:34;1.00;99.90
51837;DHT22;38941;53.254;6.600;2023-04-03T04:46:37;0.60;99.90
51837;DHT22;38941;53.254;6.600;2023-04-03T04:48:39;1.60;99.90
51837;DHT22;38941;53.254;6.600;2023-04-03T04:50:40;0.10;99.90
51837;DHT22;38941;53.254;6.600;2023-04-03T04:52:41;0.20;99.90
51837;DHT22;38941;53.254;6.600;2023-04-03T04:54:43;0.70;99.90
51837;DHT22;38941;53.254;6.600;2023-04-03T04:56:44;0.40;99.90
51837;DHT22;38941;53.254;6.600;2023-04-03T04:58:46;0.10;99.90
51837;DHT22;38941;53.254;6.600;2023-04-03T05:00:47;1.30;99.90
51837;DHT22;38941;53.254;6.600;2023-04-03T05:02:48;0.10;99.90
51837;DHT22;38941;53.254;6.600;2023-04-03T05:04:57;0.20;99.90
51837;DHT22;38941;53.254;6.600;2023-04-03T05:07:00;1.10;99.90
51837;DHT22;38941;53.254;6.600;2023-04-03T05:09:02;0.10;99.90
51837;DHT22;38941;53.254;6.600;2023-04-03T05:11:03;0.00;99.90
51837;DHT22;38941;53.254;6.600;2023-04-03T05:13:03;0.10;99.90
51837;DHT22;38941;53.254;6.600;2023-04-03T05:15:06;0.00;99.90
51837;DHT22;38941;53.254;6.600;2023-04-03T05:17:08;-0.70;99.90
51837;DHT22;38941;53.254;6.600;2023-04-03T05:19:09;0.50;99.90
51837;DHT22;38941;53.254;6.600;2023-04-03T05:21:11;0.90;99.90
51837;DHT22;38941;53.254;6.600;2023-04-03T05:23:11;0.00;99.90
51837;DHT22;38941;53.254;6.600;2023-04-03T05:25:12;0.00;99.90
51837;DHT22;38941;53.254;6.600;2023-04-03T05:27:14;0.50;99.90
51837;DHT22;38941;53.254;6.600;2023-04-03T05:29:15;1.00;99.90
51837;DHT22;38941;53.254;6.600;2023-04-03T05:31:17;0.60;99.90
51837;DHT22;38941;53.254;6.600;2023-04-03T05:33:18;1.00;99.90
51837;DHT22;38941;53.254;6.600;2023-04-03T05:35:19;0.00;99.90
51837;DHT22;38941;53.254;6.600;2023-04-03T05:37:22;0.00;99.90
51837;DHT22;38941;53.254;6.600;2023-04-03T05:39:24;1.10;99.90
51837;DHT22;38941;53.254;6.600;2023-04-03T05:41:28;0.90;99.90
51837;DHT22;38941;53.254;6.600;2023-04-03T05:43:30;-0.10;99.90
51837;DHT22;38941;53.254;6.600;2023-04-03T05:45:32;0.00;99.90
51837;DHT22;38941;53.254;6.600;2023-04-03T05:47:33;1.00;99.90
51837;DHT22;38941;53.254;6.600;2023-04-03T05:49:34;0.50;99.90
51837;DHT22;38941;53.254;6.600;2023-04-03T05:51:37;0.00;99.90
51837;DHT22;38941;53.254;6.600;2023-04-03T05:53:40;0.10;99.90
51837;DHT22;38941;53.254;6.600;2023-04-03T05:55:42;0.40;99.90
51837;DHT22;38941;53.254;6.600;2023-04-03T05:57:44;-0.10;99.90
51837;DHT22;38941;53.254;6.600;2023-04-03T05:59:46;0.10;99.90
51837;DHT22;38941;53.254;6.600;2023-04-03T06:01:48;1.00;99.90
51837;DHT22;38941;53.254;6.600;2023-04-03T06:03:50;0.20;99.90
51837;DHT22;38941;53.254;6.600;2023-04-03T06:05:55;0.20;99.90
51837;DHT22;38941;53.254;6.600;2023-04-03T06:07:57;0.20;99.90
51837;DHT22;38941;53.254;6.600;2023-04-03T06:10:00;0.20;99.90
51837;DHT22;38941;53.254;6.600;2023-04-03T06:12:02;0.90;99.90
51837;DHT22;38941;53.254;6.600;2023-04-03T06:14:03;1.20;99.90
51837;DHT22;38941;53.254;6.600;2023-04-03T06:16:05;0.80;99.90
51837;DHT22;38941;53.254;6.600;2023-04-03T06:18:06;0.40;99.90
51837;DHT22;38941;53.254;6.600;2023-04-03T06:20:07;0.50;99.90
51837;DHT22;38941;53.254;6.600;2023-04-03T06:22:08;0.40;99.90
51837;DHT22;38941;53.254;6.600;2023-04-03T06:24:11;0.50;99.90
51837;DHT22;38941;53.254;6.600;2023-04-03T06:26:17;0.50;99.90
51837;DHT22;38941;53.254;6.600;2023-04-03T06:28:18;0.50;99.90
51837;DHT22;38941;53.254;6.600;2023-04-03T06:30:20;1.70;99.90
51837;DHT22;38941;53.254;6.600;2023-04-03T06:32:22;-0.10;99.90
51837;DHT22;38941;53.254;6.600;2023-04-03T06:34:24;1.90;99.90
51837;DHT22;38941;53.254;6.600;2023-04-03T06:36:27;0.70;99.90
51837;DHT22;38941;53.254;6.600;2023-04-03T06:38:35;0.80;99.90
51837;DHT22;38941;53.254;6.600;2023-04-03T06:40:36;1.50;99.90
51837;DHT22;38941;53.254;6.600;2023-04-03T06:42:43;1.00;99.90
51837;DHT22;38941;53.254;6.600;2023-04-03T06:44:45;1.60;99.90
51837;DHT22;38941;53.254;6.600;2023-04-03T06:46:49;1.10;99.90
51837;DHT22;38941;53.254;6.600;2023-04-03T06:48:53;1.30;99.90
51837;DHT22;38941;53.254;6.600;2023-04-03T06:50:55;1.30;99.90
51837;DHT22;38941;53.254;6.600;2023-04-03T06:52:57;1.40;99.90
51837;DHT22;38941;53.254;6.600;2023-04-03T06:54:58;0.90;99.90
51837;DHT22;38941;53.254;6.600;2023-04-03T06:57:00;1.60;99.90
51837;DHT22;38941;53.254;6.600;2023-04-03T06:59:02;2.00;99.90
51837;DHT22;38941;53.254;6.600;2023-04-03T07:01:03;2.80;99.90
51837;DHT22;38941;53.254;6.600;2023-04-03T07:03:07;2.10;99.90
51837;DHT22;38941;53.254;6.600;2023-04-03T07:05:08;2.20;99.90
51837;DHT22;38941;53.254;6.600;2023-04-03T07:07:10;2.40;99.90
51837;DHT22;38941;53.254;6.600;2023-04-03T07:09:11;3.50;99.90
51837;DHT22;38941;53.254;6.600;2023-04-03T07:11:13;3.80;99.90
51837;DHT22;38941;53.254;6.600;2023-04-03T07:13:15;2.80;99.90
51837;DHT22;38941;53.254;6.600;2023-04-03T07:15:16;3.00;99.90
51837;DHT22;38941;53.254;6.600;2023-04-03T07:17:17;3.20;99.90
51837;DHT22;38941;53.254;6.600;2023-04-03T07:19:18;3.20;99.90
51837;DHT22;38941;53.254;6.600;2023-04-03T07:21:19;3.50;99.90
51837;DHT22;38941;53.254;6.600;2023-04-03T07:23:20;3.60;99.90
51837;DHT22;38941;53.254;6.600;2023-04-03T07:25:20;3.70;99.90
51837;DHT22;38941;53.254;6.600;2023-04-03T07:27:23;4.00;99.90
51837;DHT22;38941;53.254;6.600;2023-04-03T07:29:23;4.50;99.90
51837;DHT22;38941;53.254;6.600;2023-04-03T07:31:24;4.40;99.90
51837;DHT22;38941;53.254;6.600;2023-04-03T07:33:25;4.40;99.90
51837;DHT22;38941;53.254;6.600;2023-04-03T07:35:26;4.70;99.90
51837;DHT22;38941;53.254;6.600;2023-04-03T07:37:27;4.70;99.90
51837;DHT22;38941;53.254;6.600;2023-04-03T07:39:28;4.90;99.90
51837;DHT22;38941;53.254;6.600;2023-04-03T07:41:29;5.00;99.90
51837;DHT22;38941;53.254;6.600;2023-04-03T07:43:30;5.10;99.90
51837;DHT22;38941;53.254;6.600;2023-04-03T07:45:32;5.80;99.90
51837;DHT22;38941;53.254;6.600;2023-04-03T07:47:35;5.00;99.90
51837;DHT22;38941;53.254;6.600;2023-04-03T07:49:35;5.50;99.90
51837;DHT22;38941;53.254;6.600;2023-04-03T07:51:41;5.60;99.90
51837;DHT22;38941;53.254;6.600;2023-04-03T07:53:43;5.70;99.90
51837;DHT22;38941;53.254;6.600;2023-04-03T07:55:47;5.90;99.90
51837;DHT22;38941;53.254;6.600;2023-04-03T07:57:50;5.90;99.90
51837;DHT22;38941;53.254;6.600;2023-04-03T07:59:51;5.80;99.90
51837;DHT22;38941;53.254;6.600;2023-04-03T08:01:54;5.90;99.90
51837;DHT22;38941;53.254;6.600;2023-04-03T08:03:55;6.10;99.90
51837;DHT22;38941;53.254;6.600;2023-04-03T08:06:05;6.30;99.90
51837;DHT22;38941;53.254;6.600;2023-04-03T08:08:08;6.30;99.90
51837;DHT22;38941;53.254;6.600;2023-04-03T08:10:09;6.50;99.90
51837;DHT22;38941;53.254;6.600;2023-04-03T08:12:11;6.70;99.90
51837;DHT22;38941;53.254;6.600;2023-04-03T08:14:12;6.80;99.90
51837;DHT22;38941;53.254;6.600;2023-04-03T08:16:18;7.10;99.80
51837;DHT22;38941;53.254;6.600;2023-04-03T08:18:20;7.50;99.70
51837;DHT22;38941;53.254;6.600;2023-04-03T08:20:26;7.80;99.30
51837;DHT22;38941;53.254;6.600;2023-04-03T08:22:27;7.50;98.70
51837;DHT22;38941;53.254;6.600;2023-04-03T08:24:28;8.20;98.50
51837;DHT22;38941;53.254;6.600;2023-04-03T08:26:30;8.20;97.90
51837;DHT22;38941;53.254;6.600;2023-04-03T08:28:32;8.40;97.60
51837;DHT22;38941;53.254;6.600;2023-04-03T08:30:34;8.60;97.10
51837;DHT22;38941;53.254;6.600;2023-04-03T08:32:35;8.50;96.70
51837;DHT22;38941;53.254;6.600;2023-04-03T08:34:36;8.60;96.30
51837;DHT22;38941;53.254;6.600;2023-04-03T08:36:39;8.70;96.20
51837;DHT22;38941;53.254;6.600;2023-04-03T08:38:40;9.00;96.20
51837;DHT22;38941;53.254;6.600;2023-04-03T08:40:41;9.30;95.70
51837;DHT22;38941;53.254;6.600;2023-04-03T08:43:02;9.50;95.00
51837;DHT22;38941;53.254;6.600;2023-04-03T08:45:13;9.80;94.30
51837;DHT22;38941;53.254;6.600;2023-04-03T09:54:53;17.20;51.80
51837;DHT22;38941;53.254;6.600;2023-04-03T09:57:04;17.00;51.30
51837;DHT22;38941;53.254;6.600;2023-04-03T09:59:12;16.80;54.10
51837;DHT22;38941;53.254;6.600;2023-04-03T10:01:32;16.60;54.50
51837;DHT22;38941;53.254;6.600;2023-04-03T10:03:37;16.80;52.90
51837;DHT22;38941;53.254;6.600;2023-04-03T10:05:41;16.90;55.00
51837;DHT22;38941;53.254;6.600;2023-04-03T10:07:42;16.70;54.00
51837;DHT22;38941;53.254;6.600;2023-04-03T10:09:58;16.50;54.10
51837;DHT22;38941;53.254;6.600;2023-04-03T10:12:07;16.30;50.40
51837;DHT22;38941;53.254;6.600;2023-04-03T10:14:16;16.10;53.60
51837;DHT22;38941;53.254;6.600;2023-04-03T10:16:26;15.90;51.60
51837;DHT22;38941;53.254;6.600;2023-04-03T10:21:00;16.10;50.30
51837;DHT22;38941;53.254;6.600;2023-04-03T10:23:14;16.30;53.40
51837;DHT22;38941;53.254;6.600;2023-04-03T10:28:00;16.70;49.80
51837;DHT22;38941;53.254;6.600;2023-04-03T10:38:01;17.20;49.40
51837;DHT22;38941;53.254;6.600;2023-04-03T10:42:50;17.60;50.00
51837;DHT22;38941;53.254;6.600;2023-04-03T10:55:46;17.80;46.60
51837;DHT22;38941;53.254;6.600;2023-04-03T10:57:51;17.70;45.70
51837;DHT22;38941;53.254;6.600;2023-04-03T11:00:06;17.60;46.80
51837;DHT22;38941;53.254;6.600;2023-04-03T11:04:35;18.30;42.60
51837;DHT22;38941;53.254;6.600;2023-04-03T11:06:41;18.50;45.10
51837;DHT22;38941;53.254;6.600;2023-04-03T11:08:52;18.60;44.50
51837;DHT22;38941;53.254;6.600;2023-04-03T11:11:03;18.50;43.00
51837;DHT22;38941;53.254;6.600;2023-04-03T11:15:32;18.60;42.70
51837;DHT22;38941;53.254;6.600;2023-04-03T11:17:38;18.80;44.90
51837;DHT22;38941;53.254;6.600;2023-04-03T11:19:57;18.60;43.20
51837;DHT22;38941;53.254;6.600;2023-04-03T11:22:16;18.60;42.60
51837;DHT22;38941;53.254;6.600;2023-04-03T11:24:27;18.70;43.10
51837;DHT22;38941;53.254;6.600;2023-04-03T11:26:36;18.90;43.60
51837;DHT22;38941;53.254;6.600;2023-04-03T11:28:39;18.70;42.00
51837;DHT22;38941;53.254;6.600;2023-04-03T11:30:47;18.60;43.90
51837;DHT22;38941;53.254;6.600;2023-04-03T11:35:07;18.90;44.30
51837;DHT22;38941;53.254;6.600;2023-04-03T11:37:38;19.10;42.20
51837;DHT22;38941;53.254;6.600;2023-04-03T11:39:48;19.30;42.10
51837;DHT22;38941;53.254;6.600;2023-04-03T11:41:51;19.00;42.70
51837;DHT22;38941;53.254;6.600;2023-04-03T11:44:01;19.50;43.70
51837;DHT22;38941;53.254;6.600;2023-04-03T11:46:04;19.60;41.80
51837;DHT22;38941;53.254;6.600;2023-04-03T11:54:47;19.70;41.80
51837;DHT22;38941;53.254;6.600;2023-04-03T11:56:48;19.40;41.90
51837;DHT22;38941;53.254;6.600;2023-04-03T11:59:16;19.40;42.10
51837;DHT22;38941;53.254;6.600;2023-04-03T12:01:54;19.50;41.00
51837;DHT22;38941;53.254;6.600;2023-04-03T12:04:07;19.60;38.50
51837;DHT22;38941;53.254;6.600;2023-04-03T12:08:28;19.30;41.80
51837;DHT22;38941;53.254;6.600;2023-04-03T12:10:29;19.40;40.50
51837;DHT22;38941;53.254;6.600;2023-04-03T12:12:38;19.40;41.30
51837;DHT22;38941;53.254;6.600;2023-04-03T12:14:39;19.60;40.50
51837;DHT22;38941;53.254;6.600;2023-04-03T12:18:44;19.10;40.10
51837;DHT22;38941;53.254;6.600;2023-04-03T12:20:55;18.90;40.40
51837;DHT22;38941;53.254;6.600;2023-04-03T12:25:50;18.70;37.90
51837;DHT22;38941;53.254;6.600;2023-04-03T12:27:51;18.80;38.80
51837;DHT22;38941;53.254;6.600;2023-04-03T12:46:53;20.10;39.10
51837;DHT22;38941;53.254;6.600;2023-04-03T12:48:57;20.30;37.80
51837;DHT22;38941;53.254;6.600;2023-04-03T12:50:59;20.50;39.70
51837;DHT22;38941;53.254;6.600;2023-04-03T12:55:16;20.80;37.90
51837;DHT22;38941;53.254;6.600;2023-04-03T12:57:26;20.60;38.30
51837;DHT22;38941;53.254;6.600;2023-04-03T12:59:28;20.60;38.80
51837;DHT22;38941;53.254;6.600;2023-04-03T13:01:28;20.40;38.60
51837;DHT22;38941;53.254;6.600;2023-04-03T13:03:30;20.30;38.70
51837;DHT22;38941;53.254;6.600;2023-04-03T13:05:32;20.50;38.70
51837;DHT22;38941;53.254;6.600;2023-04-03T13:07:37;20.90;38.80
51837;DHT22;38941;53.254;6.600;2023-04-03T13:09:40;20.50;37.30
51837;DHT22;38941;53.254;6.600;2023-04-03T13:11:41;20.80;38.60
51837;DHT22;38941;53.254;6.600;2023-04-03T13:13:57;20.80;38.00
51837;DHT22;38941;53.254;6.600;2023-04-03T13:15:59;20.90;36.30
51837;DHT22;38941;53.254;6.600;2023-04-03T13:18:00;20.80;37.80
51837;DHT22;38941;53.254;6.600;2023-04-03T13:20:12;20.50;37.30
51837;DHT22;38941;53.254;6.600;2023-04-03T13:22:30;20.60;36.80
51837;DHT22;38941;53.254;6.600;2023-04-03T13:24:36;20.60;36.80
51837;DHT22;38941;53.254;6.600;2023-04-03T13:26:38;20.80;38.40
51837;DHT22;38941;53.254;6.600;2023-04-03T13:28:39;21.10;38.40
51837;DHT22;38941;53.254;6.600;2023-04-03T13:30:54;21.20;38.10
51837;DHT22;38941;53.254;6.600;2023-04-03T13:32:57;21.30;37.80
51837;DHT22;38941;53.254;6.600;2023-04-03T13:34:59;21.40;37.80
51837;DHT22;38941;53.254;6.600;2023-04-03T13:37:01;21.80;37.90
51837;DHT22;38941;53.254;6.600;2023-04-03T13:39:23;22.30;37.90
51837;DHT22;38941;53.254;6.600;2023-04-03T13:41:30;22.50;36.70
51837;DHT22;38941;53.254;6.600;2023-04-03T13:43:49;22.50;37.00
51837;DHT22;38941;53.254;6.600;2023-04-03T13:48:43;22.30;37.30
51837;DHT22;38941;53.254;6.600;2023-04-03T13:50:57;22.20;37.40
51837;DHT22;38941;53.254;6.600;2023-04-03T13:53:12;22.50;36.70
51837;DHT22;38941;53.254;6.600;2023-04-03T13:55:26;22.20;36.70
51837;DHT22;38941;53.254;6.600;2023-04-03T13:57:31;21.80;35.90
51837;DHT22;38941;53.254;6.600;2023-04-03T13:59:34;21.60;37.30
51837;DHT22;38941;53.254;6.600;2023-04-03T14:01:46;21.90;37.60
51837;DHT22;38941;53.254;6.600;2023-04-03T14:04:15;22.40;36.50
51837;DHT22;38941;53.254;6.600;2023-04-03T14:06:16;22.70;35.80
51837;DHT22;38941;53.254;6.600;2023-04-03T14:08:18;23.00;37.30
51837;DHT22;38941;53.254;6.600;2023-04-03T14:10:20;23.00;36.40
51837;DHT22;38941;53.254;6.600;2023-04-03T14:12:27;23.00;35.80
51837;DHT22;38941;53.254;6.600;2023-04-03T14:14:31;22.40;35.10
51837;DHT22;38941;53.254;6.600;2023-04-03T14:16:38;23.40;35.60
51837;DHT22;38941;53.254;6.600;2023-04-03T14:18:39;23.60;35.60
51837;DHT22;38941;53.254;6.600;2023-04-03T14:20:41;24.00;36.00
51837;DHT22;38941;53.254;6.600;2023-04-03T14:22:42;24.50;35.20
51837;DHT22;38941;53.254;6.600;2023-04-03T14:24:45;24.90;35.30
51837;DHT22;38941;53.254;6.600;2023-04-03T14:26:48;24.70;34.10
51837;DHT22;38941;53.254;6.600;2023-04-03T14:28:52;24.60;34.20
51837;DHT22;38941;53.254;6.600;2023-04-03T14:30:53;24.50;33.70
51837;DHT22;38941;53.254;6.600;2023-04-03T14:32:55;25.10;34.10
51837;DHT22;38941;53.254;6.600;2023-04-03T14:34:56;25.40;34.00
51837;DHT22;38941;53.254;6.600;2023-04-03T14:37:01;25.60;34.20
51837;DHT22;38941;53.254;6.600;2023-04-03T14:39:03;24.80;33.70
51837;DHT22;38941;53.254;6.600;2023-04-03T14:41:04;24.50;34.30
51837;DHT22;38941;53.254;6.600;2023-04-03T14:43:06;24.80;34.40
51837;DHT22;38941;53.254;6.600;2023-04-03T14:45:09;24.50;34.70
51837;DHT22;38941;53.254;6.600;2023-04-03T14:47:12;24.20;35.10
51837;DHT22;38941;53.254;6.600;2023-04-03T14:49:21;23.20;34.90
51837;DHT22;38941;53.254;6.600;2023-04-03T14:51:23;23.40;35.30
51837;DHT22;38941;53.254;6.600;2023-04-03T14:53:24;23.20;36.50
51837;DHT22;38941;53.254;6.600;2023-04-03T14:55:26;23.50;35.80
51837;DHT22;38941;53.254;6.600;2023-04-03T14:57:29;23.70;34.70
51837;DHT22;38941;53.254;6.600;2023-04-03T14:59:30;24.40;33.70
51837;DHT22;38941;53.254;6.600;2023-04-03T15:01:32;24.90;33.00
51837;DHT22;38941;53.254;6.600;2023-04-03T15:03:32;25.20;32.30
51837;DHT22;38941;53.254;6.600;2023-04-03T15:05:35;24.90;31.90
51837;DHT22;38941;53.254;6.600;2023-04-03T15:07:39;24.60;32.20
51837;DHT22;38941;53.254;6.600;2023-04-03T15:09:40;24.50;32.60
51837;DHT22;38941;53.254;6.600;2023-04-03T15:11:41;24.70;32.50
51837;DHT22;38941;53.254;6.600;2023-04-03T15:13:42;25.00;32.30
51837;DHT22;38941;53.254;6.600;2023-04-03T15:15:43;24.90;32.40
51837;DHT22;38941;53.254;6.600;2023-04-03T15:17:45;24.20;32.70
51837;DHT22;38941;53.254;6.600;2023-04-03T15:19:48;24.00;32.90
51837;DHT22;38941;53.254;6.600;2023-04-03T15:21:48;23.90;32.90
51837;DHT22;38941;53.254;6.600;2023-04-03T15:23:51;23.80;33.30
51837;DHT22;38941;53.254;6.600;2023-04-03T15:25:53;24.20;32.90
51837;DHT22;38941;53.254;6.600;2023-04-03T15:27:55;24.20;32.70